sensor_id;sensor_type;location;lat;lon;timestamp;temperature;humidity
57566;DHT22;63999;43.882;-0.310;2024-02-21T00:00:03;10.70;84.00
57566;DHT22;63999;43.882;-0.310;2024-02-21T00:02:31;10.70;83.80
57566;DHT22;63999;43.882;-0.310;2024-02-21T00:04:59;10.70;83.90
57566;DHT22;63999;43.882;-0.310;2024-02-21T00:07:26;10.60;84.00
57566;DHT22;63999;43.882;-0.310;2024-02-21T00:09:54;10.70;84.00
57566;DHT22;63999;43.882;-0.310;2024-02-21T00:12:21;10.60;84.10
57566;DHT22;63999;43.882;-0.310;2024-02-21T00:14:48;10.70;84.10
57566;DHT22;63999;43.882;-0.310;2024-02-21T00:17:15;10.60;84.00
57566;DHT22;63999;43.882;-0.310;2024-02-21T00:19:42;10.60;84.00
57566;DHT22;63999;43.882;-0.310;2024-02-21T00:22:09;10.60;84.30
57566;DHT22;63999;43.882;-0.310;2024-02-21T00:24:36;10.60;84.30
57566;DHT22;63999;43.882;-0.310;2024-02-21T00:27:04;10.60;84.30
57566;DHT22;63999;43.882;-0.310;2024-02-21T00:29:31;10.60;84.10
57566;DHT22;63999;43.882;-0.310;2024-02-21T00:31:58;10.60;84.20
57566;DHT22;63999;43.882;-0.310;2024-02-21T00:34:26;10.70;84.40
57566;DHT22;63999;43.882;-0.310;2024-02-21T00:36:53;10.70;84.30
57566;DHT22;63999;43.882;-0.310;2024-02-21T00:39:20;10.60;84.50
57566;DHT22;63999;43.882;-0.310;2024-02-21T00:41:47;10.70;84.50
57566;DHT22;63999;43.882;-0.310;2024-02-21T00:44:14;10.70;84.60
57566;DHT22;63999;43.882;-0.310;2024-02-21T00:46:42;10.70;84.70
57566;DHT22;63999;43.882;-0.310;2024-02-21T00:49:09;10.70;84.70
57566;DHT22;63999;43.882;-0.310;2024-02-21T00:51:36;10.70;84.70
57566;DHT22;63999;43.882;-0.310;2024-02-21T00:54:03;10.70;84.60
57566;DHT22;63999;43.882;-0.310;2024-02-21T00:56:30;10.70;84.50
57566;DHT22;63999;43.882;-0.310;2024-02-21T00:58:57;10.70;84.50
57566;DHT22;63999;43.882;-0.310;2024-02-21T01:01:25;10.60;84.30
57566;DHT22;63999;43.882;-0.310;2024-02-21T01:03:52;10.60;84.40
57566;DHT22;63999;43.882;-0.310;2024-02-21T01:06:22;10.60;84.50
57566;DHT22;63999;43.882;-0.310;2024-02-21T01:08:50;10.60;84.60
57566;DHT22;63999;43.882;-0.310;2024-02-21T01:11:17;10.60;84.60
57566;DHT22;63999;43.882;-0.310;2024-02-21T01:13:45;10.60;84.60
57566;DHT22;63999;43.882;-0.310;2024-02-21T01:16:12;10.60;84.70
57566;DHT22;63999;43.882;-0.310;2024-02-21T01:18:40;10.60;84.80
57566;DHT22;63999;43.882;-0.310;2024-02-21T01:21:07;10.60;84.60
57566;DHT22;63999;43.882;-0.310;2024-02-21T01:23:35;10.60;84.50
57566;DHT22;63999;43.882;-0.310;2024-02-21T01:26:03;10.50;84.50
57566;DHT22;63999;43.882;-0.310;2024-02-21T01:28:31;10.50;84.50
57566;DHT22;63999;43.882;-0.310;2024-02-21T01:30:58;10.50;84.50
57566;DHT22;63999;43.882;-0.310;2024-02-21T01:33:26;10.50;84.50
57566;DHT22;63999;43.882;-0.310;2024-02-21T01:35:53;10.50;84.50
57566;DHT22;63999;43.882;-0.310;2024-02-21T01:38:20;10.50;84.50
57566;DHT22;63999;43.882;-0.310;2024-02-21T01:40:48;10.50;84.40
57566;DHT22;63999;43.882;-0.310;2024-02-21T01:43:19;10.40;84.30
57566;DHT22;63999;43.882;-0.310;2024-02-21T01:45:50;10.40;84.40
57566;DHT22;63999;43.882;-0.310;2024-02-21T01:48:18;10.40;84.40
57566;DHT22;63999;43.882;-0.310;2024-02-21T01:50:54;10.40;84.40
57566;DHT22;63999;43.882;-0.310;2024-02-21T01:53:36;10.40;84.30
57566;DHT22;63999;43.882;-0.310;2024-02-21T01:56:05;10.40;84.40
57566;DHT22;63999;43.882;-0.310;2024-02-21T01:58:35;10.30;84.40
57566;DHT22;63999;43.882;-0.310;2024-02-21T02:01:04;10.30;84.40
57566;DHT22;63999;43.882;-0.310;2024-02-21T02:03:31;10.30;84.30
57566;DHT22;63999;43.882;-0.310;2024-02-21T02:05:58;10.30;84.30
57566;DHT22;63999;43.882;-0.310;2024-02-21T02:08:26;10.30;84.30
57566;DHT22;63999;43.882;-0.310;2024-02-21T02:10:53;10.30;84.10
57566;DHT22;63999;43.882;-0.310;2024-02-21T02:13:21;10.30;84.20
57566;DHT22;63999;43.882;-0.310;2024-02-21T02:15:48;10.20;84.00
57566;DHT22;63999;43.882;-0.310;2024-02-21T02:18:17;10.20;83.80
57566;DHT22;63999;43.882;-0.310;2024-02-21T02:20:46;10.20;83.70
57566;DHT22;63999;43.882;-0.310;2024-02-21T02:25:47;10.10;83.90
57566;DHT22;63999;43.882;-0.310;2024-02-21T02:28:16;10.10;83.80
57566;DHT22;63999;43.882;-0.310;2024-02-21T02:30:43;10.10;83.80
57566;DHT22;63999;43.882;-0.310;2024-02-21T02:33:10;10.00;83.90
57566;DHT22;63999;43.882;-0.310;2024-02-21T02:35:38;10.00;83.90
57566;DHT22;63999;43.882;-0.310;2024-02-21T02:38:05;10.00;83.80
57566;DHT22;63999;43.882;-0.310;2024-02-21T02:40:34;10.00;83.80
57566;DHT22;63999;43.882;-0.310;2024-02-21T02:43:01;10.00;83.70
57566;DHT22;63999;43.882;-0.310;2024-02-21T02:45:31;10.00;83.70
57566;DHT22;63999;43.882;-0.310;2024-02-21T02:47:59;10.00;83.60
57566;DHT22;63999;43.882;-0.310;2024-02-21T02:50:27;10.00;83.60
57566;DHT22;63999;43.882;-0.310;2024-02-21T02:52:55;9.90;83.50
57566;DHT22;63999;43.882;-0.310;2024-02-21T02:55:22;9.90;83.50
57566;DHT22;63999;43.882;-0.310;2024-02-21T02:57:50;9.90;83.60
57566;DHT22;63999;43.882;-0.310;2024-02-21T03:00:17;9.80;83.50
57566;DHT22;63999;43.882;-0.310;2024-02-21T03:02:46;9.80;83.30
57566;DHT22;63999;43.882;-0.310;2024-02-21T03:05:20;9.80;83.30
57566;DHT22;63999;43.882;-0.310;2024-02-21T03:07:48;9.80;83.40
57566;DHT22;63999;43.882;-0.310;2024-02-21T03:10:16;9.70;83.20
57566;DHT22;63999;43.882;-0.310;2024-02-21T03:12:45;9.70;83.10
57566;DHT22;63999;43.882;-0.310;2024-02-21T03:15:13;9.70;83.00
57566;DHT22;63999;43.882;-0.310;2024-02-21T03:17:41;9.70;82.90
57566;DHT22;63999;43.882;-0.310;2024-02-21T03:20:10;9.60;82.90
57566;DHT22;63999;43.882;-0.310;2024-02-21T03:22:39;9.60;82.80
57566;DHT22;63999;43.882;-0.310;2024-02-21T03:25:11;9.50;82.60
57566;DHT22;63999;43.882;-0.310;2024-02-21T03:27:39;9.50;82.80
57566;DHT22;63999;43.882;-0.310;2024-02-21T03:30:07;9.50;82.90
57566;DHT22;63999;43.882;-0.310;2024-02-21T03:32:34;9.50;83.00
57566;DHT22;63999;43.882;-0.310;2024-02-21T03:35:01;9.50;82.80
57566;DHT22;63999;43.882;-0.310;2024-02-21T03:37:29;9.40;82.60
57566;DHT22;63999;43.882;-0.310;2024-02-21T03:39:56;9.40;82.60
57566;DHT22;63999;43.882;-0.310;2024-02-21T03:42:23;9.40;82.50
57566;DHT22;63999;43.882;-0.310;2024-02-21T03:44:50;9.40;82.60
57566;DHT22;63999;43.882;-0.310;2024-02-21T03:47:17;9.40;82.50
57566;DHT22;63999;43.882;-0.310;2024-02-21T03:49:44;9.40;82.40
57566;DHT22;63999;43.882;-0.310;2024-02-21T03:52:12;9.40;82.40
57566;DHT22;63999;43.882;-0.310;2024-02-21T03:54:39;9.30;82.30
57566;DHT22;63999;43.882;-0.310;2024-02-21T03:57:06;9.30;82.40
57566;DHT22;63999;43.882;-0.310;2024-02-21T03:59:33;9.20;82.20
57566;DHT22;63999;43.882;-0.310;2024-02-21T04:02:00;9.20;82.00
57566;DHT22;63999;43.882;-0.310;2024-02-21T04:04:28;9.20;81.80
57566;DHT22;63999;43.882;-0.310;2024-02-21T04:06:55;9.10;81.80
57566;DHT22;63999;43.882;-0.310;2024-02-21T04:09:22;9.10;81.90
57566;DHT22;63999;43.882;-0.310;2024-02-21T04:11:49;9.10;81.90
57566;DHT22;63999;43.882;-0.310;2024-02-21T04:14:16;9.10;81.90
57566;DHT22;63999;43.882;-0.310;2024-02-21T04:16:43;9.00;81.80
57566;DHT22;63999;43.882;-0.310;2024-02-21T04:19:10;9.00;81.90
57566;DHT22;63999;43.882;-0.310;2024-02-21T04:21:38;9.00;82.00
57566;DHT22;63999;43.882;-0.310;2024-02-21T04:24:05;9.00;81.90
57566;DHT22;63999;43.882;-0.310;2024-02-21T04:26:33;9.00;81.80
57566;DHT22;63999;43.882;-0.310;2024-02-21T04:29:01;9.00;81.70
57566;DHT22;63999;43.882;-0.310;2024-02-21T04:31:29;8.90;81.70
57566;DHT22;63999;43.882;-0.310;2024-02-21T04:33:56;8.90;81.80
57566;DHT22;63999;43.882;-0.310;2024-02-21T04:36:24;8.90;82.00
57566;DHT22;63999;43.882;-0.310;2024-02-21T04:38:51;8.90;82.00
57566;DHT22;63999;43.882;-0.310;2024-02-21T04:41:18;8.90;82.10
57566;DHT22;63999;43.882;-0.310;2024-02-21T04:43:46;8.90;82.20
57566;DHT22;63999;43.882;-0.310;2024-02-21T04:46:15;8.90;82.20
57566;DHT22;63999;43.882;-0.310;2024-02-21T04:48:42;8.90;82.30
57566;DHT22;63999;43.882;-0.310;2024-02-21T04:51:11;9.00;82.30
57566;DHT22;63999;43.882;-0.310;2024-02-21T04:53:40;8.90;82.50
57566;DHT22;63999;43.882;-0.310;2024-02-21T04:56:07;9.00;82.40
57566;DHT22;63999;43.882;-0.310;2024-02-21T04:58:38;8.90;82.30
57566;DHT22;63999;43.882;-0.310;2024-02-21T05:01:06;8.90;82.20
57566;DHT22;63999;43.882;-0.310;2024-02-21T05:03:33;8.90;82.10
57566;DHT22;63999;43.882;-0.310;2024-02-21T05:06:01;8.90;82.00
57566;DHT22;63999;43.882;-0.310;2024-02-21T05:08:28;8.80;81.90
57566;DHT22;63999;43.882;-0.310;2024-02-21T05:10:55;8.80;81.80
57566;DHT22;63999;43.882;-0.310;2024-02-21T05:13:22;8.80;81.80
57566;DHT22;63999;43.882;-0.310;2024-02-21T05:15:50;8.80;82.20
57566;DHT22;63999;43.882;-0.310;2024-02-21T05:18:17;8.80;82.20
57566;DHT22;63999;43.882;-0.310;2024-02-21T05:20:44;8.80;82.10
57566;DHT22;63999;43.882;-0.310;2024-02-21T05:23:11;8.70;82.00
57566;DHT22;63999;43.882;-0.310;2024-02-21T05:25:38;8.60;81.70
57566;DHT22;63999;43.882;-0.310;2024-02-21T05:28:06;8.60;81.70
57566;DHT22;63999;43.882;-0.310;2024-02-21T05:30:33;8.60;82.00
57566;DHT22;63999;43.882;-0.310;2024-02-21T05:33:07;8.60;81.90
57566;DHT22;63999;43.882;-0.310;2024-02-21T05:35:35;8.60;81.70
57566;DHT22;63999;43.882;-0.310;2024-02-21T05:38:03;8.50;81.40
57566;DHT22;63999;43.882;-0.310;2024-02-21T05:40:38;8.40;81.50
57566;DHT22;63999;43.882;-0.310;2024-02-21T05:43:07;8.40;81.50
57566;DHT22;63999;43.882;-0.310;2024-02-21T05:45:35;8.30;81.60
57566;DHT22;63999;43.882;-0.310;2024-02-21T05:48:03;8.30;82.00
57566;DHT22;63999;43.882;-0.310;2024-02-21T05:50:31;8.30;82.20
57566;DHT22;63999;43.882;-0.310;2024-02-21T05:52:59;8.40;82.30
57566;DHT22;63999;43.882;-0.310;2024-02-21T05:55:26;8.40;82.60
57566;DHT22;63999;43.882;-0.310;2024-02-21T05:57:54;8.40;82.60
57566;DHT22;63999;43.882;-0.310;2024-02-21T06:00:22;8.40;82.60
57566;DHT22;63999;43.882;-0.310;2024-02-21T06:02:49;8.40;82.70
57566;DHT22;63999;43.882;-0.310;2024-02-21T06:05:16;8.40;82.50
57566;DHT22;63999;43.882;-0.310;2024-02-21T06:07:43;8.40;82.40
57566;DHT22;63999;43.882;-0.310;2024-02-21T06:10:11;8.40;82.40
57566;DHT22;63999;43.882;-0.310;2024-02-21T06:12:38;8.30;82.70
57566;DHT22;63999;43.882;-0.310;2024-02-21T06:15:06;8.40;82.90
57566;DHT22;63999;43.882;-0.310;2024-02-21T06:17:33;8.40;83.10
57566;DHT22;63999;43.882;-0.310;2024-02-21T06:20:00;8.40;83.10
57566;DHT22;63999;43.882;-0.310;2024-02-21T06:22:28;8.40;83.00
57566;DHT22;63999;43.882;-0.310;2024-02-21T06:24:55;8.40;83.00
57566;DHT22;63999;43.882;-0.310;2024-02-21T06:27:22;8.40;83.00
57566;DHT22;63999;43.882;-0.310;2024-02-21T06:29:49;8.40;83.00
57566;DHT22;63999;43.882;-0.310;2024-02-21T06:32:16;8.40;82.90
57566;DHT22;63999;43.882;-0.310;2024-02-21T06:34:43;8.40;83.00
57566;DHT22;63999;43.882;-0.310;2024-02-21T06:37:10;8.40;83.10
57566;DHT22;63999;43.882;-0.310;2024-02-21T06:39:37;8.40;83.10
57566;DHT22;63999;43.882;-0.310;2024-02-21T06:42:04;8.40;83.00
57566;DHT22;63999;43.882;-0.310;2024-02-21T06:44:32;8.40;83.00
57566;DHT22;63999;43.882;-0.310;2024-02-21T06:47:03;8.40;83.20
57566;DHT22;63999;43.882;-0.310;2024-02-21T06:49:30;8.30;83.30
57566;DHT22;63999;43.882;-0.310;2024-02-21T06:51:57;8.40;83.40
57566;DHT22;63999;43.882;-0.310;2024-02-21T06:54:24;8.40;83.30
57566;DHT22;63999;43.882;-0.310;2024-02-21T06:56:51;8.40;83.30
57566;DHT22;63999;43.882;-0.310;2024-02-21T06:59:18;8.40;83.20
57566;DHT22;63999;43.882;-0.310;2024-02-21T07:01:48;8.40;83.30
57566;DHT22;63999;43.882;-0.310;2024-02-21T07:04:15;8.40;83.50
57566;DHT22;63999;43.882;-0.310;2024-02-21T07:06:42;8.40;83.60
57566;DHT22;63999;43.882;-0.310;2024-02-21T07:09:10;8.40;83.40
57566;DHT22;63999;43.882;-0.310;2024-02-21T07:11:37;8.40;83.30
57566;DHT22;63999;43.882;-0.310;2024-02-21T07:14:04;8.40;83.20
57566;DHT22;63999;43.882;-0.310;2024-02-21T07:16:31;8.30;83.00
57566;DHT22;63999;43.882;-0.310;2024-02-21T07:19:00;8.30;83.10
57566;DHT22;63999;43.882;-0.310;2024-02-21T07:21:27;8.30;83.30
57566;DHT22;63999;43.882;-0.310;2024-02-21T07:23:54;8.20;83.40
57566;DHT22;63999;43.882;-0.310;2024-02-21T07:26:21;8.20;83.40
57566;DHT22;63999;43.882;-0.310;2024-02-21T07:28:49;8.20;83.40
57566;DHT22;63999;43.882;-0.310;2024-02-21T07:31:16;8.20;83.70
57566;DHT22;63999;43.882;-0.310;2024-02-21T07:33:44;8.30;83.70
57566;DHT22;63999;43.882;-0.310;2024-02-21T07:36:11;8.30;83.80
57566;DHT22;63999;43.882;-0.310;2024-02-21T07:38:39;8.30;83.90
57566;DHT22;63999;43.882;-0.310;2024-02-21T07:41:06;8.30;84.00
57566;DHT22;63999;43.882;-0.310;2024-02-21T07:43:33;8.30;83.90
57566;DHT22;63999;43.882;-0.310;2024-02-21T07:46:00;8.30;83.90
57566;DHT22;63999;43.882;-0.310;2024-02-21T07:48:27;8.40;84.00
57566;DHT22;63999;43.882;-0.310;2024-02-21T07:50:57;8.40;83.90
57566;DHT22;63999;43.882;-0.310;2024-02-21T07:53:24;8.40;84.00
57566;DHT22;63999;43.882;-0.310;2024-02-21T07:55:51;8.40;83.90
57566;DHT22;63999;43.882;-0.310;2024-02-21T07:58:18;8.30;84.00
57566;DHT22;63999;43.882;-0.310;2024-02-21T08:00:46;8.30;83.90
57566;DHT22;63999;43.882;-0.310;2024-02-21T08:03:13;8.30;84.10
57566;DHT22;63999;43.882;-0.310;2024-02-21T08:05:42;8.30;84.20
57566;DHT22;63999;43.882;-0.310;2024-02-21T08:08:10;8.30;84.40
57566;DHT22;63999;43.882;-0.310;2024-02-21T08:10:37;8.40;84.50
57566;DHT22;63999;43.882;-0.310;2024-02-21T08:13:06;8.40;84.60
57566;DHT22;63999;43.882;-0.310;2024-02-21T08:15:33;8.40;84.70
57566;DHT22;63999;43.882;-0.310;2024-02-21T08:18:00;8.40;84.70
57566;DHT22;63999;43.882;-0.310;2024-02-21T08:20:28;8.40;84.70
57566;DHT22;63999;43.882;-0.310;2024-02-21T08:22:55;8.40;84.70
57566;DHT22;63999;43.882;-0.310;2024-02-21T08:25:23;8.50;85.00
57566;DHT22;63999;43.882;-0.310;2024-02-21T08:27:50;8.50;85.10
57566;DHT22;63999;43.882;-0.310;2024-02-21T08:30:18;8.50;85.10
57566;DHT22;63999;43.882;-0.310;2024-02-21T08:32:46;8.50;85.20
57566;DHT22;63999;43.882;-0.310;2024-02-21T08:35:13;8.60;85.20
57566;DHT22;63999;43.882;-0.310;2024-02-21T08:37:41;8.60;85.20
57566;DHT22;63999;43.882;-0.310;2024-02-21T08:40:10;8.60;85.20
57566;DHT22;63999;43.882;-0.310;2024-02-21T08:42:39;8.60;85.30
57566;DHT22;63999;43.882;-0.310;2024-02-21T08:45:07;8.60;85.40
57566;DHT22;63999;43.882;-0.310;2024-02-21T08:47:34;8.60;85.40
57566;DHT22;63999;43.882;-0.310;2024-02-21T08:50:05;8.60;85.50
57566;DHT22;63999;43.882;-0.310;2024-02-21T08:52:44;8.70;85.50
57566;DHT22;63999;43.882;-0.310;2024-02-21T08:55:12;8.70;85.60
57566;DHT22;63999;43.882;-0.310;2024-02-21T08:57:39;8.80;85.80
57566;DHT22;63999;43.882;-0.310;2024-02-21T09:00:07;8.80;85.90
57566;DHT22;63999;43.882;-0.310;2024-02-21T09:02:40;8.80;85.90
57566;DHT22;63999;43.882;-0.310;2024-02-21T09:05:08;8.90;86.10
57566;DHT22;63999;43.882;-0.310;2024-02-21T09:07:35;8.90;86.20
57566;DHT22;63999;43.882;-0.310;2024-02-21T09:10:02;9.00;86.60
57566;DHT22;63999;43.882;-0.310;2024-02-21T09:12:30;9.00;86.90
57566;DHT22;63999;43.882;-0.310;2024-02-21T09:14:57;9.10;87.00
57566;DHT22;63999;43.882;-0.310;2024-02-21T09:17:24;9.20;87.10
57566;DHT22;63999;43.882;-0.310;2024-02-21T09:19:52;9.20;87.60
57566;DHT22;63999;43.882;-0.310;2024-02-21T09:22:19;9.30;87.40
57566;DHT22;63999;43.882;-0.310;2024-02-21T09:24:46;9.40;87.50
57566;DHT22;63999;43.882;-0.310;2024-02-21T09:27:14;9.40;87.90
57566;DHT22;63999;43.882;-0.310;2024-02-21T09:29:41;9.50;87.90
57566;DHT22;63999;43.882;-0.310;2024-02-21T09:32:08;9.50;87.80
57566;DHT22;63999;43.882;-0.310;2024-02-21T09:34:36;9.50;87.80
57566;DHT22;63999;43.882;-0.310;2024-02-21T09:37:03;9.50;87.80
57566;DHT22;63999;43.882;-0.310;2024-02-21T09:39:31;9.50;87.80
57566;DHT22;63999;43.882;-0.310;2024-02-21T09:42:06;9.50;87.90
57566;DHT22;63999;43.882;-0.310;2024-02-21T09:44:37;9.50;88.00
57566;DHT22;63999;43.882;-0.310;2024-02-21T09:47:10;9.60;88.20
57566;DHT22;63999;43.882;-0.310;2024-02-21T09:49:41;9.70;88.20
57566;DHT22;63999;43.882;-0.310;2024-02-21T09:52:09;9.70;88.10
57566;DHT22;63999;43.882;-0.310;2024-02-21T09:54:39;9.70;88.20
57566;DHT22;63999;43.882;-0.310;2024-02-21T09:57:11;9.70;88.30
57566;DHT22;63999;43.882;-0.310;2024-02-21T09:59:39;9.70;88.70
57566;DHT22;63999;43.882;-0.310;2024-02-21T10:02:08;9.90;89.20
57566;DHT22;63999;43.882;-0.310;2024-02-21T10:04:35;9.90;89.00
57566;DHT22;63999;43.882;-0.310;2024-02-21T10:07:03;10.00;88.90
57566;DHT22;63999;43.882;-0.310;2024-02-21T10:09:31;10.00;89.00
57566;DHT22;63999;43.882;-0.310;2024-02-21T10:12:10;10.00;88.80
57566;DHT22;63999;43.882;-0.310;2024-02-21T10:14:39;10.00;88.70
57566;DHT22;63999;43.882;-0.310;2024-02-21T10:17:07;10.00;88.90
57566;DHT22;63999;43.882;-0.310;2024-02-21T10:19:38;10.00;88.80
57566;DHT22;63999;43.882;-0.310;2024-02-21T10:22:08;10.00;88.80
57566;DHT22;63999;43.882;-0.310;2024-02-21T10:24:37;10.00;88.80
57566;DHT22;63999;43.882;-0.310;2024-02-21T10:27:10;10.00;88.70
57566;DHT22;63999;43.882;-0.310;2024-02-21T10:29:40;10.00;88.60
57566;DHT22;63999;43.882;-0.310;2024-02-21T10:32:13;10.00;88.70
57566;DHT22;63999;43.882;-0.310;2024-02-21T10:34:42;10.00;88.70
57566;DHT22;63999;43.882;-0.310;2024-02-21T10:37:11;10.00;88.70
57566;DHT22;63999;43.882;-0.310;2024-02-21T10:39:40;10.00;88.70
57566;DHT22;63999;43.882;-0.310;2024-02-21T10:42:10;10.00;88.50
57566;DHT22;63999;43.882;-0.310;2024-02-21T10:44:40;10.00;88.70
57566;DHT22;63999;43.882;-0.310;2024-02-21T10:47:09;10.00;88.60
57566;DHT22;63999;43.882;-0.310;2024-02-21T10:49:41;10.00;88.70
57566;DHT22;63999;43.882;-0.310;2024-02-21T10:52:21;10.00;88.70
57566;DHT22;63999;43.882;-0.310;2024-02-21T10:54:55;10.00;88.60
57566;DHT22;63999;43.882;-0.310;2024-02-21T10:57:25;10.00;88.60
57566;DHT22;63999;43.882;-0.310;2024-02-21T10:59:56;10.00;88.60
57566;DHT22;63999;43.882;-0.310;2024-02-21T11:02:26;10.00;88.60
57566;DHT22;63999;43.882;-0.310;2024-02-21T11:04:58;10.00;88.70
57566;DHT22;63999;43.882;-0.310;2024-02-21T11:07:26;10.00;88.70
57566;DHT22;63999;43.882;-0.310;2024-02-21T11:09:54;10.00;88.70
57566;DHT22;63999;43.882;-0.310;2024-02-21T11:12:23;10.00;88.70
57566;DHT22;63999;43.882;-0.310;2024-02-21T11:14:51;10.00;88.70
57566;DHT22;63999;43.882;-0.310;2024-02-21T11:17:18;10.00;88.80
57566;DHT22;63999;43.882;-0.310;2024-02-21T11:19:46;10.00;88.70
57566;DHT22;63999;43.882;-0.310;2024-02-21T11:22:19;10.00;88.70
57566;DHT22;63999;43.882;-0.310;2024-02-21T11:24:47;10.10;88.80
57566;DHT22;63999;43.882;-0.310;2024-02-21T11:27:22;10.10;89.00
57566;DHT22;63999;43.882;-0.310;2024-02-21T11:29:56;10.10;88.90
57566;DHT22;63999;43.882;-0.310;2024-02-21T11:32:25;10.10;88.80
57566;DHT22;63999;43.882;-0.310;2024-02-21T11:35:01;10.10;88.80
57566;DHT22;63999;43.882;-0.310;2024-02-21T11:37:35;10.10;88.90
57566;DHT22;63999;43.882;-0.310;2024-02-21T11:40:06;10.10;88.90
57566;DHT22;63999;43.882;-0.310;2024-02-21T11:42:37;10.20;88.90
57566;DHT22;63999;43.882;-0.310;2024-02-21T11:45:04;10.20;89.00
57566;DHT22;63999;43.882;-0.310;2024-02-21T11:47:32;10.20;89.00
57566;DHT22;63999;43.882;-0.310;2024-02-21T11:49:59;10.20;88.90
57566;DHT22;63999;43.882;-0.310;2024-02-21T11:52:26;10.20;89.00
57566;DHT22;63999;43.882;-0.310;2024-02-21T11:54:55;10.20;89.00
57566;DHT22;63999;43.882;-0.310;2024-02-21T11:57:31;10.20;89.10
57566;DHT22;63999;43.882;-0.310;2024-02-21T11:59:58;10.20;89.00
57566;DHT22;63999;43.882;-0.310;2024-02-21T12:02:30;10.20;89.10
57566;DHT22;63999;43.882;-0.310;2024-02-21T12:04:57;10.20;89.10
57566;DHT22;63999;43.882;-0.310;2024-02-21T12:07:24;10.30;89.10
57566;DHT22;63999;43.882;-0.310;2024-02-21T12:09:52;10.30;89.20
57566;DHT22;63999;43.882;-0.310;2024-02-21T12:12:22;10.30;89.10
57566;DHT22;63999;43.882;-0.310;2024-02-21T12:14:55;10.30;89.10
57566;DHT22;63999;43.882;-0.310;2024-02-21T12:17:23;10.30;89.20
57566;DHT22;63999;43.882;-0.310;2024-02-21T12:19:50;10.30;89.10
57566;DHT22;63999;43.882;-0.310;2024-02-21T12:22:18;10.30;89.30
57566;DHT22;63999;43.882;-0.310;2024-02-21T12:24:46;10.40;89.30
57566;DHT22;63999;43.882;-0.310;2024-02-21T12:27:15;10.40;89.30
57566;DHT22;63999;43.882;-0.310;2024-02-21T12:29:42;10.40;89.30
57566;DHT22;63999;43.882;-0.310;2024-02-21T12:32:09;10.40;89.30
57566;DHT22;63999;43.882;-0.310;2024-02-21T12:34:37;10.40;89.20
57566;DHT22;63999;43.882;-0.310;2024-02-21T12:37:19;10.40;89.30
57566;DHT22;63999;43.882;-0.310;2024-02-21T12:39:47;10.40;89.30
57566;DHT22;63999;43.882;-0.310;2024-02-21T12:42:15;10.40;89.30
57566;DHT22;63999;43.882;-0.310;2024-02-21T12:44:42;10.40;89.40
57566;DHT22;63999;43.882;-0.310;2024-02-21T12:47:10;10.40;89.40
57566;DHT22;63999;43.882;-0.310;2024-02-21T12:49:37;10.50;89.30
57566;DHT22;63999;43.882;-0.310;2024-02-21T12:52:10;10.50;89.50
57566;DHT22;63999;43.882;-0.310;2024-02-21T12:54:38;10.50;89.50
57566;DHT22;63999;43.882;-0.310;2024-02-21T12:57:05;10.50;89.60
57566;DHT22;63999;43.882;-0.310;2024-02-21T12:59:32;10.50;89.50
57566;DHT22;63999;43.882;-0.310;2024-02-21T13:01:59;10.50;89.50
57566;DHT22;63999;43.882;-0.310;2024-02-21T13:04:27;10.60;89.60
57566;DHT22;63999;43.882;-0.310;2024-02-21T13:06:55;10.60;89.70
57566;DHT22;63999;43.882;-0.310;2024-02-21T13:09:22;10.60;89.80
57566;DHT22;63999;43.882;-0.310;2024-02-21T13:11:49;10.60;89.80
57566;DHT22;63999;43.882;-0.310;2024-02-21T13:14:18;10.60;89.80
57566;DHT22;63999;43.882;-0.310;2024-02-21T13:16:45;10.60;89.70
57566;DHT22;63999;43.882;-0.310;2024-02-21T13:19:15;10.60;89.70
57566;DHT22;63999;43.882;-0.310;2024-02-21T13:21:45;10.60;89.80
57566;DHT22;63999;43.882;-0.310;2024-02-21T13:24:12;10.60;89.80
57566;DHT22;63999;43.882;-0.310;2024-02-21T13:26:39;10.60;89.80
57566;DHT22;63999;43.882;-0.310;2024-02-21T13:29:06;10.70;89.80
57566;DHT22;63999;43.882;-0.310;2024-02-21T13:31:36;10.70;89.80
57566;DHT22;63999;43.882;-0.310;2024-02-21T13:34:03;10.70;89.80
57566;DHT22;63999;43.882;-0.310;2024-02-21T13:36:33;10.70;89.90
57566;DHT22;63999;43.882;-0.310;2024-02-21T13:39:00;10.70;89.80
57566;DHT22;63999;43.882;-0.310;2024-02-21T13:41:27;10.70;90.00
57566;DHT22;63999;43.882;-0.310;2024-02-21T13:43:54;10.80;89.90
57566;DHT22;63999;43.882;-0.310;2024-02-21T13:46:22;10.80;89.90
57566;DHT22;63999;43.882;-0.310;2024-02-21T13:48:49;10.80;90.00
57566;DHT22;63999;43.882;-0.310;2024-02-21T13:51:16;10.80;90.00
57566;DHT22;63999;43.882;-0.310;2024-02-21T13:53:44;10.80;90.10
57566;DHT22;63999;43.882;-0.310;2024-02-21T13:56:11;10.80;90.00
57566;DHT22;63999;43.882;-0.310;2024-02-21T13:58:38;10.80;90.00
57566;DHT22;63999;43.882;-0.310;2024-02-21T14:01:06;10.80;90.00
57566;DHT22;63999;43.882;-0.310;2024-02-21T14:03:33;10.90;90.10
57566;DHT22;63999;43.882;-0.310;2024-02-21T14:06:00;10.90;90.10
57566;DHT22;63999;43.882;-0.310;2024-02-21T14:08:28;10.90;90.10
57566;DHT22;63999;43.882;-0.310;2024-02-21T14:10:55;10.90;90.10
57566;DHT22;63999;43.882;-0.310;2024-02-21T14:13:23;10.90;90.10
57566;DHT22;63999;43.882;-0.310;2024-02-21T14:15:50;10.90;90.10
57566;DHT22;63999;43.882;-0.310;2024-02-21T14:18:17;10.90;90.10
57566;DHT22;63999;43.882;-0.310;2024-02-21T14:20:44;10.90;90.10
57566;DHT22;63999;43.882;-0.310;2024-02-21T14:23:14;11.00;90.20
57566;DHT22;63999;43.882;-0.310;2024-02-21T14:25:41;11.00;90.10
57566;DHT22;63999;43.882;-0.310;2024-02-21T14:28:09;11.00;90.20
57566;DHT22;63999;43.882;-0.310;2024-02-21T14:30:36;11.00;90.20
57566;DHT22;63999;43.882;-0.310;2024-02-21T14:33:04;11.00;90.10
57566;DHT22;63999;43.882;-0.310;2024-02-21T14:35:31;11.00;90.20
57566;DHT22;63999;43.882;-0.310;2024-02-21T14:37:58;11.00;90.20
57566;DHT22;63999;43.882;-0.310;2024-02-21T14:40:28;11.00;90.30
57566;DHT22;63999;43.882;-0.310;2024-02-21T14:42:57;11.00;90.20
57566;DHT22;63999;43.882;-0.310;2024-02-21T14:45:24;11.00;90.30
57566;DHT22;63999;43.882;-0.310;2024-02-21T14:47:51;11.10;90.30
57566;DHT22;63999;43.882;-0.310;2024-02-21T14:50:18;11.10;90.40
57566;DHT22;63999;43.882;-0.310;2024-02-21T14:52:45;11.10;90.30
57566;DHT22;63999;43.882;-0.310;2024-02-21T14:55:13;11.10;90.40
57566;DHT22;63999;43.882;-0.310;2024-02-21T14:57:41;11.10;90.30
57566;DHT22;63999;43.882;-0.310;2024-02-21T15:00:09;11.10;90.20
57566;DHT22;63999;43.882;-0.310;2024-02-21T15:02:38;11.10;90.30
57566;DHT22;63999;43.882;-0.310;2024-02-21T15:05:06;11.10;90.30
57566;DHT22;63999;43.882;-0.310;2024-02-21T15:07:33;11.10;90.40
57566;DHT22;63999;43.882;-0.310;2024-02-21T15:10:02;11.10;90.40
57566;DHT22;63999;43.882;-0.310;2024-02-21T15:12:31;11.10;90.50
57566;DHT22;63999;43.882;-0.310;2024-02-21T15:14:58;11.10;90.60
57566;DHT22;63999;43.882;-0.310;2024-02-21T15:17:26;11.20;90.70
57566;DHT22;63999;43.882;-0.310;2024-02-21T15:19:53;11.30;90.80
57566;DHT22;63999;43.882;-0.310;2024-02-21T15:22:22;11.30;90.90
57566;DHT22;63999;43.882;-0.310;2024-02-21T15:24:50;11.30;90.80
57566;DHT22;63999;43.882;-0.310;2024-02-21T15:27:18;11.30;90.70
57566;DHT22;63999;43.882;-0.310;2024-02-21T15:29:45;11.30;90.70